Terminal Aerodrome Forecast
Issued by NWS Grand Rapids, MI

Home | Current Version | Previous Version | Text Only | Print | Product List | Glossary On
Versions: 1 2 3 4 5 6 7 8 9 10 11 12 13 14 15 16 17 18 19 20 21 22 23 24 25 26 27 28
896
FTUS43 KGRR 181527 AAE
TAFGRR
TAF AMD
KGRR 181527Z 1815/1912 26008KT 3SM BR OVC004
     FM181600 25009KT 5SM BR OVC006
     FM182200 23010KT P6SM SCT015
     FM190200 22009KT 4SM BR OVC015
     FM190900 21006KT 1/2SM FG SKC=

USA.gov is the U.S. government's official web portal to all federal, state and local government web resources and services.